sensor_id;sensor_type;location;lat;lon;timestamp;P1;durP1;ratioP1;P2;durP2;ratioP2
59300;SDS011;45073;52.740;6.784;2023-12-14T00:01:13;9.52;;;4.43;;
59300;SDS011;45073;52.740;6.784;2023-12-14T00:03:42;8.65;;;3.83;;
59300;SDS011;45073;52.740;6.784;2023-12-14T00:06:10;9.32;;;4.10;;
59300;SDS011;45073;52.740;6.784;2023-12-14T00:08:36;9.20;;;4.45;;
59300;SDS011;45073;52.740;6.784;2023-12-14T00:11:06;10.70;;;4.95;;
59300;SDS011;45073;52.740;6.784;2023-12-14T00:13:34;8.77;;;3.78;;
59300;SDS011;45073;52.740;6.784;2023-12-14T00:16:00;10.82;;;4.60;;
59300;SDS011;45073;52.740;6.784;2023-12-14T00:18:26;10.73;;;4.85;;
59300;SDS011;45073;52.740;6.784;2023-12-14T00:20:52;11.55;;;4.45;;
59300;SDS011;45073;52.740;6.784;2023-12-14T00:23:18;9.10;;;4.20;;
59300;SDS011;45073;52.740;6.784;2023-12-14T00:25:53;9.60;;;4.38;;
59300;SDS011;45073;52.740;6.784;2023-12-14T00:28:18;9.07;;;4.43;;
59300;SDS011;45073;52.740;6.784;2023-12-14T00:30:44;10.43;;;4.88;;
59300;SDS011;45073;52.740;6.784;2023-12-14T00:33:10;10.25;;;5.72;;
59300;SDS011;45073;52.740;6.784;2023-12-14T00:35:35;9.40;;;4.28;;
59300;SDS011;45073;52.740;6.784;2023-12-14T00:38:01;8.50;;;3.90;;
59300;SDS011;45073;52.740;6.784;2023-12-14T00:40:27;9.27;;;4.32;;
59300;SDS011;45073;52.740;6.784;2023-12-14T00:42:52;8.73;;;4.00;;
59300;SDS011;45073;52.740;6.784;2023-12-14T00:45:18;8.15;;;3.90;;
59300;SDS011;45073;52.740;6.784;2023-12-14T00:47:44;8.63;;;3.80;;
59300;SDS011;45073;52.740;6.784;2023-12-14T00:50:09;8.57;;;4.20;;
59300;SDS011;45073;52.740;6.784;2023-12-14T00:52:35;10.02;;;4.60;;
59300;SDS011;45073;52.740;6.784;2023-12-14T00:55:01;8.32;;;3.72;;
59300;SDS011;45073;52.740;6.784;2023-12-14T00:57:26;8.07;;;4.20;;
59300;SDS011;45073;52.740;6.784;2023-12-14T00:59:52;10.10;;;4.43;;
59300;SDS011;45073;52.740;6.784;2023-12-14T01:02:17;9.27;;;4.13;;
59300;SDS011;45073;52.740;6.784;2023-12-14T01:04:43;8.32;;;3.83;;
59300;SDS011;45073;52.740;6.784;2023-12-14T01:07:09;8.65;;;4.13;;
59300;SDS011;45073;52.740;6.784;2023-12-14T01:09:35;9.35;;;4.38;;
59300;SDS011;45073;52.740;6.784;2023-12-14T01:12:00;9.30;;;3.88;;
59300;SDS011;45073;52.740;6.784;2023-12-14T01:14:26;9.27;;;4.15;;
59300;SDS011;45073;52.740;6.784;2023-12-14T01:16:52;9.30;;;4.35;;
59300;SDS011;45073;52.740;6.784;2023-12-14T01:19:17;9.30;;;4.40;;
59300;SDS011;45073;52.740;6.784;2023-12-14T01:21:43;9.50;;;4.70;;
59300;SDS011;45073;52.740;6.784;2023-12-14T01:24:08;9.15;;;4.10;;
59300;SDS011;45073;52.740;6.784;2023-12-14T01:26:34;8.18;;;3.58;;
59300;SDS011;45073;52.740;6.784;2023-12-14T01:28:59;8.50;;;4.13;;
59300;SDS011;45073;52.740;6.784;2023-12-14T01:31:25;9.07;;;4.30;;
59300;SDS011;45073;52.740;6.784;2023-12-14T01:33:51;10.10;;;4.18;;
59300;SDS011;45073;52.740;6.784;2023-12-14T01:36:21;9.55;;;4.07;;
59300;SDS011;45073;52.740;6.784;2023-12-14T01:38:46;7.72;;;3.70;;
59300;SDS011;45073;52.740;6.784;2023-12-14T01:41:12;9.43;;;3.53;;
59300;SDS011;45073;52.740;6.784;2023-12-14T01:43:38;9.32;;;3.50;;
59300;SDS011;45073;52.740;6.784;2023-12-14T01:46:04;10.00;;;4.47;;
59300;SDS011;45073;52.740;6.784;2023-12-14T01:48:29;10.57;;;4.68;;
59300;SDS011;45073;52.740;6.784;2023-12-14T01:50:55;11.13;;;5.35;;
59300;SDS011;45073;52.740;6.784;2023-12-14T01:53:21;10.20;;;4.97;;
59300;SDS011;45073;52.740;6.784;2023-12-14T01:55:46;9.25;;;4.25;;
59300;SDS011;45073;52.740;6.784;2023-12-14T01:58:12;8.75;;;3.47;;
59300;SDS011;45073;52.740;6.784;2023-12-14T02:03:09;10.45;;;4.05;;
59300;SDS011;45073;52.740;6.784;2023-12-14T02:05:36;8.77;;;3.67;;
59300;SDS011;45073;52.740;6.784;2023-12-14T02:08:01;8.45;;;3.90;;
59300;SDS011;45073;52.740;6.784;2023-12-14T02:10:27;8.35;;;3.60;;
59300;SDS011;45073;52.740;6.784;2023-12-14T02:12:53;9.77;;;4.60;;
59300;SDS011;45073;52.740;6.784;2023-12-14T02:15:18;8.85;;;4.10;;
59300;SDS011;45073;52.740;6.784;2023-12-14T02:17:45;9.50;;;4.05;;
59300;SDS011;45073;52.740;6.784;2023-12-14T02:20:10;8.93;;;3.58;;
59300;SDS011;45073;52.740;6.784;2023-12-14T02:22:52;9.95;;;4.00;;
59300;SDS011;45073;52.740;6.784;2023-12-14T02:25:19;9.75;;;3.25;;
59300;SDS011;45073;52.740;6.784;2023-12-14T02:27:46;9.43;;;4.20;;
59300;SDS011;45073;52.740;6.784;2023-12-14T02:30:12;9.13;;;4.07;;
59300;SDS011;45073;52.740;6.784;2023-12-14T02:32:39;10.70;;;4.22;;
59300;SDS011;45073;52.740;6.784;2023-12-14T02:35:05;9.55;;;4.22;;
59300;SDS011;45073;52.740;6.784;2023-12-14T02:37:32;9.80;;;4.60;;
59300;SDS011;45073;52.740;6.784;2023-12-14T02:39:58;10.65;;;4.32;;
59300;SDS011;45073;52.740;6.784;2023-12-14T02:42:25;9.75;;;4.28;;
59300;SDS011;45073;52.740;6.784;2023-12-14T02:44:51;9.38;;;4.28;;
59300;SDS011;45073;52.740;6.784;2023-12-14T02:47:18;9.15;;;3.65;;
59300;SDS011;45073;52.740;6.784;2023-12-14T02:49:44;7.85;;;3.25;;
59300;SDS011;45073;52.740;6.784;2023-12-14T02:52:09;9.23;;;3.08;;
59300;SDS011;45073;52.740;6.784;2023-12-14T02:54:38;8.85;;;3.83;;
59300;SDS011;45073;52.740;6.784;2023-12-14T02:57:04;9.07;;;3.65;;
59300;SDS011;45073;52.740;6.784;2023-12-14T02:59:30;9.85;;;3.78;;
59300;SDS011;45073;52.740;6.784;2023-12-14T03:01:55;9.57;;;3.67;;
59300;SDS011;45073;52.740;6.784;2023-12-14T03:04:21;10.63;;;4.13;;
59300;SDS011;45073;52.740;6.784;2023-12-14T03:06:47;8.82;;;3.47;;
59300;SDS011;45073;52.740;6.784;2023-12-14T03:09:12;9.15;;;4.03;;
59300;SDS011;45073;52.740;6.784;2023-12-14T03:11:38;9.38;;;3.88;;
59300;SDS011;45073;52.740;6.784;2023-12-14T03:14:03;9.43;;;3.35;;
59300;SDS011;45073;52.740;6.784;2023-12-14T03:16:29;7.32;;;3.50;;
59300;SDS011;45073;52.740;6.784;2023-12-14T03:18:55;8.93;;;3.17;;
59300;SDS011;45073;52.740;6.784;2023-12-14T03:21:21;11.20;;;4.10;;
59300;SDS011;45073;52.740;6.784;2023-12-14T03:23:48;10.60;;;4.35;;
59300;SDS011;45073;52.740;6.784;2023-12-14T03:26:14;9.10;;;4.30;;
59300;SDS011;45073;52.740;6.784;2023-12-14T03:28:40;8.73;;;4.18;;
59300;SDS011;45073;52.740;6.784;2023-12-14T03:31:05;8.95;;;3.28;;
59300;SDS011;45073;52.740;6.784;2023-12-14T03:33:31;9.82;;;4.22;;
59300;SDS011;45073;52.740;6.784;2023-12-14T03:35:57;9.68;;;4.07;;
59300;SDS011;45073;52.740;6.784;2023-12-14T03:38:22;9.20;;;3.90;;
59300;SDS011;45073;52.740;6.784;2023-12-14T03:40:48;8.98;;;4.28;;
59300;SDS011;45073;52.740;6.784;2023-12-14T03:43:13;9.93;;;3.42;;
59300;SDS011;45073;52.740;6.784;2023-12-14T03:45:39;7.97;;;3.38;;
59300;SDS011;45073;52.740;6.784;2023-12-14T03:48:05;9.85;;;3.60;;
59300;SDS011;45073;52.740;6.784;2023-12-14T03:50:30;8.43;;;3.40;;
59300;SDS011;45073;52.740;6.784;2023-12-14T03:52:57;8.70;;;3.85;;
59300;SDS011;45073;52.740;6.784;2023-12-14T03:55:23;9.60;;;4.07;;
59300;SDS011;45073;52.740;6.784;2023-12-14T03:57:49;9.98;;;4.03;;
59300;SDS011;45073;52.740;6.784;2023-12-14T04:00:14;9.15;;;3.55;;
59300;SDS011;45073;52.740;6.784;2023-12-14T04:02:40;8.75;;;3.13;;
59300;SDS011;45073;52.740;6.784;2023-12-14T04:05:06;8.95;;;3.67;;
59300;SDS011;45073;52.740;6.784;2023-12-14T04:07:35;10.35;;;4.28;;
59300;SDS011;45073;52.740;6.784;2023-12-14T04:10:14;10.48;;;3.80;;
59300;SDS011;45073;52.740;6.784;2023-12-14T04:12:40;9.43;;;3.35;;
59300;SDS011;45073;52.740;6.784;2023-12-14T04:15:06;10.13;;;4.03;;
59300;SDS011;45073;52.740;6.784;2023-12-14T04:17:34;9.27;;;4.03;;
59300;SDS011;45073;52.740;6.784;2023-12-14T04:20:00;9.15;;;4.40;;
59300;SDS011;45073;52.740;6.784;2023-12-14T04:22:26;13.00;;;4.35;;
59300;SDS011;45073;52.740;6.784;2023-12-14T04:24:52;9.85;;;3.63;;
59300;SDS011;45073;52.740;6.784;2023-12-14T04:27:18;9.77;;;3.97;;
59300;SDS011;45073;52.740;6.784;2023-12-14T04:29:44;13.00;;;3.78;;
59300;SDS011;45073;52.740;6.784;2023-12-14T04:32:09;9.82;;;3.97;;
59300;SDS011;45073;52.740;6.784;2023-12-14T04:34:35;9.55;;;3.80;;
59300;SDS011;45073;52.740;6.784;2023-12-14T04:37:01;9.82;;;3.33;;
59300;SDS011;45073;52.740;6.784;2023-12-14T04:39:27;8.93;;;3.63;;
59300;SDS011;45073;52.740;6.784;2023-12-14T04:41:53;9.40;;;3.85;;
59300;SDS011;45073;52.740;6.784;2023-12-14T04:44:19;8.88;;;3.83;;
59300;SDS011;45073;52.740;6.784;2023-12-14T04:46:46;8.65;;;3.33;;
59300;SDS011;45073;52.740;6.784;2023-12-14T04:49:15;8.30;;;2.97;;
59300;SDS011;45073;52.740;6.784;2023-12-14T04:51:41;9.68;;;3.45;;
59300;SDS011;45073;52.740;6.784;2023-12-14T04:54:07;9.27;;;3.30;;
59300;SDS011;45073;52.740;6.784;2023-12-14T04:56:33;10.00;;;3.47;;
59300;SDS011;45073;52.740;6.784;2023-12-14T04:58:59;11.85;;;4.30;;
59300;SDS011;45073;52.740;6.784;2023-12-14T05:01:25;8.65;;;3.80;;
59300;SDS011;45073;52.740;6.784;2023-12-14T05:03:53;7.63;;;3.30;;
59300;SDS011;45073;52.740;6.784;2023-12-14T05:06:20;8.48;;;3.70;;
59300;SDS011;45073;52.740;6.784;2023-12-14T05:08:46;10.32;;;4.53;;
59300;SDS011;45073;52.740;6.784;2023-12-14T05:11:14;11.60;;;4.47;;
59300;SDS011;45073;52.740;6.784;2023-12-14T05:13:40;11.82;;;4.07;;
59300;SDS011;45073;52.740;6.784;2023-12-14T05:16:06;10.52;;;3.40;;
59300;SDS011;45073;52.740;6.784;2023-12-14T05:18:37;9.57;;;4.10;;
59300;SDS011;45073;52.740;6.784;2023-12-14T05:21:02;10.38;;;3.67;;
59300;SDS011;45073;52.740;6.784;2023-12-14T05:23:28;10.57;;;3.80;;
59300;SDS011;45073;52.740;6.784;2023-12-14T05:25:54;8.77;;;3.75;;
59300;SDS011;45073;52.740;6.784;2023-12-14T05:28:19;8.68;;;4.32;;
59300;SDS011;45073;52.740;6.784;2023-12-14T05:30:45;12.45;;;3.92;;
59300;SDS011;45073;52.740;6.784;2023-12-14T05:33:11;8.35;;;3.38;;
59300;SDS011;45073;52.740;6.784;2023-12-14T05:35:36;9.02;;;2.85;;
59300;SDS011;45073;52.740;6.784;2023-12-14T05:38:02;7.25;;;3.25;;
59300;SDS011;45073;52.740;6.784;2023-12-14T05:40:27;10.20;;;3.80;;
59300;SDS011;45073;52.740;6.784;2023-12-14T05:42:53;11.18;;;3.75;;
59300;SDS011;45073;52.740;6.784;2023-12-14T05:45:19;8.93;;;3.90;;
59300;SDS011;45073;52.740;6.784;2023-12-14T05:47:45;8.50;;;3.58;;
59300;SDS011;45073;52.740;6.784;2023-12-14T05:50:11;9.45;;;3.40;;
59300;SDS011;45073;52.740;6.784;2023-12-14T05:52:37;9.23;;;3.35;;
59300;SDS011;45073;52.740;6.784;2023-12-14T05:55:03;9.05;;;3.35;;
59300;SDS011;45073;52.740;6.784;2023-12-14T05:57:29;10.00;;;3.60;;
59300;SDS011;45073;52.740;6.784;2023-12-14T05:59:55;7.70;;;3.03;;
59300;SDS011;45073;52.740;6.784;2023-12-14T06:02:21;8.02;;;3.63;;
59300;SDS011;45073;52.740;6.784;2023-12-14T06:04:47;9.82;;;3.35;;
59300;SDS011;45073;52.740;6.784;2023-12-14T06:07:16;10.45;;;5.30;;
59300;SDS011;45073;52.740;6.784;2023-12-14T06:09:42;12.27;;;4.85;;
59300;SDS011;45073;52.740;6.784;2023-12-14T06:12:08;9.75;;;4.07;;
59300;SDS011;45073;52.740;6.784;2023-12-14T06:14:33;12.60;;;4.70;;
59300;SDS011;45073;52.740;6.784;2023-12-14T06:17:00;11.48;;;4.60;;
59300;SDS011;45073;52.740;6.784;2023-12-14T06:19:25;11.07;;;4.63;;
59300;SDS011;45073;52.740;6.784;2023-12-14T06:21:51;10.73;;;4.60;;
59300;SDS011;45073;52.740;6.784;2023-12-14T06:24:17;11.15;;;3.55;;
59300;SDS011;45073;52.740;6.784;2023-12-14T06:26:46;12.30;;;3.78;;
59300;SDS011;45073;52.740;6.784;2023-12-14T06:29:11;9.25;;;3.95;;
59300;SDS011;45073;52.740;6.784;2023-12-14T06:31:37;9.73;;;4.50;;
59300;SDS011;45073;52.740;6.784;2023-12-14T06:34:04;9.32;;;3.83;;
59300;SDS011;45073;52.740;6.784;2023-12-14T06:36:30;11.68;;;4.60;;
59300;SDS011;45073;52.740;6.784;2023-12-14T06:38:59;11.90;;;4.13;;
59300;SDS011;45073;52.740;6.784;2023-12-14T06:41:26;12.77;;;5.03;;
59300;SDS011;45073;52.740;6.784;2023-12-14T06:43:52;12.52;;;4.68;;
59300;SDS011;45073;52.740;6.784;2023-12-14T06:46:19;12.05;;;4.72;;
59300;SDS011;45073;52.740;6.784;2023-12-14T06:48:45;11.60;;;5.18;;
59300;SDS011;45073;52.740;6.784;2023-12-14T06:51:11;9.38;;;3.85;;
59300;SDS011;45073;52.740;6.784;2023-12-14T06:53:38;9.95;;;4.25;;
59300;SDS011;45073;52.740;6.784;2023-12-14T06:56:05;10.07;;;4.25;;
59300;SDS011;45073;52.740;6.784;2023-12-14T06:58:34;10.50;;;5.28;;
59300;SDS011;45073;52.740;6.784;2023-12-14T07:01:00;12.90;;;4.60;;
59300;SDS011;45073;52.740;6.784;2023-12-14T07:03:26;13.70;;;4.38;;
59300;SDS011;45073;52.740;6.784;2023-12-14T07:05:51;11.38;;;4.65;;
59300;SDS011;45073;52.740;6.784;2023-12-14T07:08:17;11.73;;;5.07;;
59300;SDS011;45073;52.740;6.784;2023-12-14T07:10:42;9.25;;;4.10;;
59300;SDS011;45073;52.740;6.784;2023-12-14T07:13:08;11.90;;;4.75;;
59300;SDS011;45073;52.740;6.784;2023-12-14T07:15:34;9.65;;;4.05;;
59300;SDS011;45073;52.740;6.784;2023-12-14T07:17:59;9.52;;;4.05;;
59300;SDS011;45073;52.740;6.784;2023-12-14T07:20:25;9.13;;;4.15;;
59300;SDS011;45073;52.740;6.784;2023-12-14T07:22:50;9.23;;;3.55;;
59300;SDS011;45073;52.740;6.784;2023-12-14T07:25:16;11.00;;;4.60;;
59300;SDS011;45073;52.740;6.784;2023-12-14T07:27:41;9.77;;;4.05;;
59300;SDS011;45073;52.740;6.784;2023-12-14T07:30:08;10.07;;;4.45;;
59300;SDS011;45073;52.740;6.784;2023-12-14T07:32:34;9.98;;;4.07;;
59300;SDS011;45073;52.740;6.784;2023-12-14T07:35:00;10.65;;;4.03;;
59300;SDS011;45073;52.740;6.784;2023-12-14T07:37:26;12.55;;;5.57;;
59300;SDS011;45073;52.740;6.784;2023-12-14T07:39:51;10.88;;;4.30;;
59300;SDS011;45073;52.740;6.784;2023-12-14T07:42:17;9.02;;;4.03;;
59300;SDS011;45073;52.740;6.784;2023-12-14T07:44:45;11.95;;;4.68;;
59300;SDS011;45073;52.740;6.784;2023-12-14T07:47:11;10.18;;;5.07;;
59300;SDS011;45073;52.740;6.784;2023-12-14T07:49:36;10.55;;;4.88;;
59300;SDS011;45073;52.740;6.784;2023-12-14T07:52:02;11.40;;;4.43;;
59300;SDS011;45073;52.740;6.784;2023-12-14T07:54:28;11.07;;;4.55;;
59300;SDS011;45073;52.740;6.784;2023-12-14T07:56:54;11.00;;;4.45;;
59300;SDS011;45073;52.740;6.784;2023-12-14T07:59:20;8.77;;;3.67;;
59300;SDS011;45073;52.740;6.784;2023-12-14T08:01:46;11.40;;;5.57;;
59300;SDS011;45073;52.740;6.784;2023-12-14T08:04:12;11.98;;;5.00;;
59300;SDS011;45073;52.740;6.784;2023-12-14T08:06:37;9.73;;;3.88;;
59300;SDS011;45073;52.740;6.784;2023-12-14T08:09:06;13.18;;;4.55;;
59300;SDS011;45073;52.740;6.784;2023-12-14T08:11:32;9.52;;;4.07;;
59300;SDS011;45073;52.740;6.784;2023-12-14T08:13:58;11.00;;;4.97;;
59300;SDS011;45073;52.740;6.784;2023-12-14T08:16:23;9.88;;;3.75;;
59300;SDS011;45073;52.740;6.784;2023-12-14T08:18:49;12.57;;;5.15;;
59300;SDS011;45073;52.740;6.784;2023-12-14T08:21:15;13.23;;;5.55;;
59300;SDS011;45073;52.740;6.784;2023-12-14T08:23:41;10.23;;;4.35;;
59300;SDS011;45073;52.740;6.784;2023-12-14T08:26:07;9.73;;;4.40;;
59300;SDS011;45073;52.740;6.784;2023-12-14T08:28:35;10.32;;;4.45;;
59300;SDS011;45073;52.740;6.784;2023-12-14T08:31:00;14.50;;;5.13;;
59300;SDS011;45073;52.740;6.784;2023-12-14T08:33:28;11.30;;;5.38;;
59300;SDS011;45073;52.740;6.784;2023-12-14T08:35:54;11.25;;;5.28;;
59300;SDS011;45073;52.740;6.784;2023-12-14T08:38:20;11.88;;;5.25;;
59300;SDS011;45073;52.740;6.784;2023-12-14T08:40:46;12.88;;;5.40;;
59300;SDS011;45073;52.740;6.784;2023-12-14T08:43:11;10.55;;;5.03;;
59300;SDS011;45073;52.740;6.784;2023-12-14T08:45:37;10.93;;;3.83;;
59300;SDS011;45073;52.740;6.784;2023-12-14T08:48:03;10.27;;;4.82;;
59300;SDS011;45073;52.740;6.784;2023-12-14T08:50:29;10.70;;;4.93;;
59300;SDS011;45073;52.740;6.784;2023-12-14T08:52:55;11.13;;;4.63;;
59300;SDS011;45073;52.740;6.784;2023-12-14T08:55:23;12.23;;;4.78;;
59300;SDS011;45073;52.740;6.784;2023-12-14T08:57:49;12.80;;;5.05;;
59300;SDS011;45073;52.740;6.784;2023-12-14T09:00:15;11.25;;;4.97;;
59300;SDS011;45073;52.740;6.784;2023-12-14T09:02:43;11.70;;;5.38;;
59300;SDS011;45073;52.740;6.784;2023-12-14T09:05:11;11.07;;;4.85;;
59300;SDS011;45073;52.740;6.784;2023-12-14T09:07:37;11.75;;;4.88;;
59300;SDS011;45073;52.740;6.784;2023-12-14T09:10:03;10.95;;;3.95;;
59300;SDS011;45073;52.740;6.784;2023-12-14T09:12:28;12.68;;;4.97;;
59300;SDS011;45073;52.740;6.784;2023-12-14T09:14:55;10.95;;;4.53;;
59300;SDS011;45073;52.740;6.784;2023-12-14T09:17:20;11.82;;;4.78;;
59300;SDS011;45073;52.740;6.784;2023-12-14T09:19:46;9.82;;;3.80;;
59300;SDS011;45073;52.740;6.784;2023-12-14T09:22:12;14.30;;;5.00;;
59300;SDS011;45073;52.740;6.784;2023-12-14T09:24:37;13.90;;;5.93;;
59300;SDS011;45073;52.740;6.784;2023-12-14T09:27:03;12.70;;;5.68;;
59300;SDS011;45073;52.740;6.784;2023-12-14T09:29:29;11.57;;;5.30;;
59300;SDS011;45073;52.740;6.784;2023-12-14T09:31:54;11.95;;;5.18;;
59300;SDS011;45073;52.740;6.784;2023-12-14T09:34:20;12.15;;;5.68;;
59300;SDS011;45073;52.740;6.784;2023-12-14T09:36:47;11.60;;;5.78;;
59300;SDS011;45073;52.740;6.784;2023-12-14T09:39:12;15.00;;;5.32;;
59300;SDS011;45073;52.740;6.784;2023-12-14T09:41:40;13.10;;;4.82;;
59300;SDS011;45073;52.740;6.784;2023-12-14T09:44:06;11.63;;;5.07;;
59300;SDS011;45073;52.740;6.784;2023-12-14T09:46:36;10.90;;;4.70;;
59300;SDS011;45073;52.740;6.784;2023-12-14T09:49:02;12.88;;;5.63;;
59300;SDS011;45073;52.740;6.784;2023-12-14T09:51:29;12.25;;;6.00;;
59300;SDS011;45073;52.740;6.784;2023-12-14T09:53:55;11.65;;;4.80;;
59300;SDS011;45073;52.740;6.784;2023-12-14T09:56:26;9.77;;;4.22;;
59300;SDS011;45073;52.740;6.784;2023-12-14T09:58:52;10.35;;;5.03;;
59300;SDS011;45073;52.740;6.784;2023-12-14T10:01:25;12.32;;;4.97;;
59300;SDS011;45073;52.740;6.784;2023-12-14T10:04:08;11.93;;;5.07;;
59300;SDS011;45073;52.740;6.784;2023-12-14T10:06:35;12.82;;;5.68;;
59300;SDS011;45073;52.740;6.784;2023-12-14T10:09:02;10.80;;;4.60;;
59300;SDS011;45073;52.740;6.784;2023-12-14T10:11:28;14.05;;;6.43;;
59300;SDS011;45073;52.740;6.784;2023-12-14T10:13:54;14.05;;;4.80;;
59300;SDS011;45073;52.740;6.784;2023-12-14T10:16:27;13.73;;;5.82;;
59300;SDS011;45073;52.740;6.784;2023-12-14T10:18:55;14.55;;;5.03;;
59300;SDS011;45073;52.740;6.784;2023-12-14T10:21:23;11.30;;;5.28;;
59300;SDS011;45073;52.740;6.784;2023-12-14T10:23:54;14.27;;;6.10;;
59300;SDS011;45073;52.740;6.784;2023-12-14T10:26:24;11.18;;;4.60;;
59300;SDS011;45073;52.740;6.784;2023-12-14T10:28:51;11.18;;;4.82;;
59300;SDS011;45073;52.740;6.784;2023-12-14T10:31:20;13.70;;;5.07;;
59300;SDS011;45073;52.740;6.784;2023-12-14T10:33:46;12.50;;;6.15;;
59300;SDS011;45073;52.740;6.784;2023-12-14T10:36:17;13.68;;;5.18;;
59300;SDS011;45073;52.740;6.784;2023-12-14T10:38:45;11.57;;;4.68;;
59300;SDS011;45073;52.740;6.784;2023-12-14T10:41:14;10.05;;;4.45;;
59300;SDS011;45073;52.740;6.784;2023-12-14T10:43:41;10.82;;;4.93;;
59300;SDS011;45073;52.740;6.784;2023-12-14T10:46:09;9.60;;;4.30;;
59300;SDS011;45073;52.740;6.784;2023-12-14T10:48:35;10.45;;;5.25;;
59300;SDS011;45073;52.740;6.784;2023-12-14T10:51:07;12.73;;;5.10;;
59300;SDS011;45073;52.740;6.784;2023-12-14T10:53:34;12.13;;;6.13;;
59300;SDS011;45073;52.740;6.784;2023-12-14T10:56:01;13.20;;;4.95;;
59300;SDS011;45073;52.740;6.784;2023-12-14T10:58:51;15.60;;;5.00;;
59300;SDS011;45073;52.740;6.784;2023-12-14T11:01:19;12.43;;;5.57;;
59300;SDS011;45073;52.740;6.784;2023-12-14T11:03:46;12.75;;;5.28;;
59300;SDS011;45073;52.740;6.784;2023-12-14T11:06:20;11.80;;;5.35;;
59300;SDS011;45073;52.740;6.784;2023-12-14T11:09:09;11.27;;;5.63;;
59300;SDS011;45073;52.740;6.784;2023-12-14T11:14:21;11.50;;;5.40;;
59300;SDS011;45073;52.740;6.784;2023-12-14T11:16:48;13.13;;;4.68;;
59300;SDS011;45073;52.740;6.784;2023-12-14T11:21:46;10.23;;;4.72;;
59300;SDS011;45073;52.740;6.784;2023-12-14T11:24:30;9.75;;;4.15;;
59300;SDS011;45073;52.740;6.784;2023-12-14T11:26:55;11.18;;;4.97;;
59300;SDS011;45073;52.740;6.784;2023-12-14T11:29:21;17.10;;;6.00;;
59300;SDS011;45073;52.740;6.784;2023-12-14T11:31:47;12.63;;;5.28;;
59300;SDS011;45073;52.740;6.784;2023-12-14T11:34:16;14.32;;;6.57;;
59300;SDS011;45073;52.740;6.784;2023-12-14T11:36:42;14.55;;;5.88;;
59300;SDS011;45073;52.740;6.784;2023-12-14T11:39:09;15.02;;;5.32;;
59300;SDS011;45073;52.740;6.784;2023-12-14T11:41:35;13.10;;;5.30;;
59300;SDS011;45073;52.740;6.784;2023-12-14T11:44:01;14.30;;;6.25;;
59300;SDS011;45073;52.740;6.784;2023-12-14T11:46:28;13.32;;;5.53;;
59300;SDS011;45073;52.740;6.784;2023-12-14T11:48:55;11.65;;;5.32;;
59300;SDS011;45073;52.740;6.784;2023-12-14T11:51:21;12.63;;;5.53;;
59300;SDS011;45073;52.740;6.784;2023-12-14T11:53:48;10.80;;;4.75;;
59300;SDS011;45073;52.740;6.784;2023-12-14T11:56:16;15.05;;;5.95;;
59300;SDS011;45073;52.740;6.784;2023-12-14T11:58:43;13.80;;;5.65;;
59300;SDS011;45073;52.740;6.784;2023-12-14T12:01:19;9.65;;;4.63;;
59300;SDS011;45073;52.740;6.784;2023-12-14T12:03:49;10.80;;;4.47;;
59300;SDS011;45073;52.740;6.784;2023-12-14T12:06:25;12.95;;;5.22;;
59300;SDS011;45073;52.740;6.784;2023-12-14T12:08:55;10.77;;;4.68;;
59300;SDS011;45073;52.740;6.784;2023-12-14T12:11:21;10.90;;;4.88;;
59300;SDS011;45073;52.740;6.784;2023-12-14T12:13:51;12.25;;;4.45;;
59300;SDS011;45073;52.740;6.784;2023-12-14T12:16:18;11.25;;;4.75;;
59300;SDS011;45073;52.740;6.784;2023-12-14T12:18:43;13.43;;;5.35;;
59300;SDS011;45073;52.740;6.784;2023-12-14T12:21:10;12.25;;;4.90;;
59300;SDS011;45073;52.740;6.784;2023-12-14T12:23:36;10.23;;;4.28;;
59300;SDS011;45073;52.740;6.784;2023-12-14T12:26:02;11.88;;;4.93;;
59300;SDS011;45073;52.740;6.784;2023-12-14T12:28:27;13.68;;;4.95;;
59300;SDS011;45073;52.740;6.784;2023-12-14T12:30:55;13.40;;;5.03;;
59300;SDS011;45073;52.740;6.784;2023-12-14T12:33:21;11.18;;;5.10;;
59300;SDS011;45073;52.740;6.784;2023-12-14T12:35:46;14.98;;;5.18;;
59300;SDS011;45073;52.740;6.784;2023-12-14T12:38:12;15.63;;;6.45;;
59300;SDS011;45073;52.740;6.784;2023-12-14T12:40:37;13.65;;;5.82;;
59300;SDS011;45073;52.740;6.784;2023-12-14T12:43:04;12.68;;;5.07;;
59300;SDS011;45073;52.740;6.784;2023-12-14T12:45:30;10.82;;;4.50;;
59300;SDS011;45073;52.740;6.784;2023-12-14T12:47:57;11.20;;;4.25;;
59300;SDS011;45073;52.740;6.784;2023-12-14T12:50:22;18.27;;;7.07;;
59300;SDS011;45073;52.740;6.784;2023-12-14T12:52:48;10.65;;;4.63;;
59300;SDS011;45073;52.740;6.784;2023-12-14T12:55:14;11.05;;;4.70;;
59300;SDS011;45073;52.740;6.784;2023-12-14T12:57:40;13.77;;;5.82;;
59300;SDS011;45073;52.740;6.784;2023-12-14T13:00:07;11.82;;;5.00;;
59300;SDS011;45073;52.740;6.784;2023-12-14T13:02:42;11.07;;;4.70;;
59300;SDS011;45073;52.740;6.784;2023-12-14T13:05:10;11.38;;;5.63;;
59300;SDS011;45073;52.740;6.784;2023-12-14T13:07:36;11.85;;;4.82;;
59300;SDS011;45073;52.740;6.784;2023-12-14T13:10:05;11.82;;;5.65;;
59300;SDS011;45073;52.740;6.784;2023-12-14T13:12:32;14.82;;;5.93;;
59300;SDS011;45073;52.740;6.784;2023-12-14T13:14:58;13.15;;;5.15;;
59300;SDS011;45073;52.740;6.784;2023-12-14T13:17:24;12.93;;;5.70;;
59300;SDS011;45073;52.740;6.784;2023-12-14T13:19:51;14.95;;;5.05;;
59300;SDS011;45073;52.740;6.784;2023-12-14T13:22:16;13.00;;;5.97;;
59300;SDS011;45073;52.740;6.784;2023-12-14T13:24:42;13.18;;;5.50;;
59300;SDS011;45073;52.740;6.784;2023-12-14T13:27:08;12.48;;;4.80;;
59300;SDS011;45073;52.740;6.784;2023-12-14T13:29:33;11.23;;;4.85;;
59300;SDS011;45073;52.740;6.784;2023-12-14T13:32:00;13.75;;;4.63;;
59300;SDS011;45073;52.740;6.784;2023-12-14T13:34:26;13.90;;;4.75;;
59300;SDS011;45073;52.740;6.784;2023-12-14T13:36:59;12.50;;;4.68;;
59300;SDS011;45073;52.740;6.784;2023-12-14T13:39:26;12.93;;;4.72;;
59300;SDS011;45073;52.740;6.784;2023-12-14T13:41:52;10.73;;;5.03;;
59300;SDS011;45073;52.740;6.784;2023-12-14T13:44:18;15.77;;;5.93;;
59300;SDS011;45073;52.740;6.784;2023-12-14T13:46:43;12.57;;;4.72;;
59300;SDS011;45073;52.740;6.784;2023-12-14T13:49:09;12.45;;;5.85;;
59300;SDS011;45073;52.740;6.784;2023-12-14T13:51:35;12.30;;;5.72;;
59300;SDS011;45073;52.740;6.784;2023-12-14T13:54:00;12.90;;;6.15;;
59300;SDS011;45073;52.740;6.784;2023-12-14T13:56:26;12.60;;;5.70;;
59300;SDS011;45073;52.740;6.784;2023-12-14T13:58:52;12.32;;;5.80;;
59300;SDS011;45073;52.740;6.784;2023-12-14T14:01:18;13.65;;;6.40;;
59300;SDS011;45073;52.740;6.784;2023-12-14T14:03:44;12.63;;;6.18;;
59300;SDS011;45073;52.740;6.784;2023-12-14T14:06:11;14.15;;;5.55;;
59300;SDS011;45073;52.740;6.784;2023-12-14T14:08:37;13.65;;;4.88;;
59300;SDS011;45073;52.740;6.784;2023-12-14T14:11:03;13.68;;;5.78;;
59300;SDS011;45073;52.740;6.784;2023-12-14T14:13:29;13.30;;;4.93;;
59300;SDS011;45073;52.740;6.784;2023-12-14T14:15:55;14.15;;;5.47;;
59300;SDS011;45073;52.740;6.784;2023-12-14T14:18:21;12.00;;;4.88;;
59300;SDS011;45073;52.740;6.784;2023-12-14T14:20:46;12.38;;;5.50;;
59300;SDS011;45073;52.740;6.784;2023-12-14T14:23:22;12.95;;;6.57;;
59300;SDS011;45073;52.740;6.784;2023-12-14T14:25:53;14.80;;;6.25;;
59300;SDS011;45073;52.740;6.784;2023-12-14T14:28:20;11.40;;;5.65;;
59300;SDS011;45073;52.740;6.784;2023-12-14T14:30:47;13.60;;;5.40;;
59300;SDS011;45073;52.740;6.784;2023-12-14T14:33:13;12.85;;;5.82;;
59300;SDS011;45073;52.740;6.784;2023-12-14T14:35:43;12.20;;;5.53;;
59300;SDS011;45073;52.740;6.784;2023-12-14T14:38:10;13.10;;;5.95;;
59300;SDS011;45073;52.740;6.784;2023-12-14T14:40:36;12.93;;;6.15;;
59300;SDS011;45073;52.740;6.784;2023-12-14T14:43:03;12.55;;;6.53;;
59300;SDS011;45073;52.740;6.784;2023-12-14T14:45:29;13.27;;;5.55;;